createdAt,value
2019-03-20T00:00:12.480Z,94899.06
2019-03-20T00:02:41.138Z,94901.95
2019-03-20T00:05:09.812Z,94898.31
2019-03-20T00:07:38.491Z,94898.02
2019-03-20T00:10:09.953Z,94902.20
2019-03-20T00:12:40.090Z,94899.52
2019-03-20T00:15:11.813Z,94900.65
2019-03-20T00:17:40.680Z,94896.76
2019-03-20T00:20:14.448Z,94899.20
2019-03-20T00:22:43.695Z,94897.14
2019-03-20T00:25:13.052Z,94904.14
2019-03-20T00:27:42.117Z,94904.23
2019-03-20T00:30:18.484Z,94904.45
2019-03-20T00:32:47.660Z,94911.13
2019-03-20T00:35:16.769Z,94908.34
2019-03-20T00:37:45.783Z,94913.20
2019-03-20T00:40:16.324Z,94909.35
2019-03-20T00:42:45.245Z,94916.45
2019-03-20T00:45:19.609Z,94912.23
2019-03-20T00:47:48.339Z,94919.00
2019-03-20T00:50:18.037Z,94928.44
2019-03-20T00:52:46.713Z,94922.75
2019-03-20T00:55:16.598Z,94920.84
2019-03-20T00:57:45.590Z,94914.16
2019-03-20T01:00:19.877Z,94917.87
2019-03-20T01:02:48.539Z,94914.75
2019-03-20T01:05:17.497Z,94908.46
2019-03-20T01:07:46.905Z,94910.23
2019-03-20T01:10:20.194Z,94909.44
2019-03-20T01:12:48.969Z,94909.44
2019-03-20T01:15:17.934Z,94909.05
2019-03-20T01:17:47.107Z,94915.44
2019-03-20T01:20:20.444Z,94917.64
2019-03-20T01:22:49.310Z,94912.89
2019-03-20T01:25:18.706Z,94910.31
2019-03-20T01:27:47.490Z,94911.03
2019-03-20T01:30:39.645Z,94911.62
2019-03-20T01:33:10.330Z,94913.19
2019-03-20T01:35:39.216Z,94915.19
2019-03-20T01:38:08.898Z,94857.94
2019-03-20T01:40:40.331Z,94916.96
2019-03-20T01:43:08.959Z,94925.37
2019-03-20T01:45:37.946Z,94925.40
2019-03-20T01:48:06.913Z,94931.16
2019-03-20T01:50:35.596Z,94924.02
2019-03-20T01:53:05.286Z,94925.95
2019-03-20T01:55:33.972Z,94930.91
2019-03-20T01:58:02.938Z,94928.81
2019-03-20T02:00:31.902Z,94931.09
2019-03-20T02:03:00.579Z,94935.27
2019-03-20T02:05:35.686Z,94914.73
2019-03-20T02:07:59.659Z,94931.43
2019-03-20T02:10:28.328Z,94933.23
2019-03-20T02:12:58.781Z,94935.53
2019-03-20T02:15:38.044Z,94932.92
2019-03-20T02:17:57.794Z,94936.83
2019-03-20T02:20:26.458Z,94944.22
2019-03-20T02:22:55.327Z,94942.70
2019-03-20T02:25:24.002Z,94945.39
2019-03-20T02:27:52.669Z,94942.71
2019-03-20T02:30:21.629Z,94942.92
2019-03-20T02:32:50.304Z,94941.16
2019-03-20T02:35:19.022Z,94949.28
2019-03-20T02:37:47.825Z,94950.34
2019-03-20T02:40:16.676Z,94947.41
2019-03-20T02:42:45.351Z,94944.23
2019-03-20T02:45:16.107Z,94939.74
2019-03-20T02:47:45.380Z,94933.41
2019-03-20T02:50:15.068Z,94949.33
2019-03-20T02:52:43.707Z,94937.31
2019-03-20T02:55:13.210Z,94949.30
2019-03-20T02:57:42.581Z,94955.91
2019-03-20T03:00:14.379Z,94948.25
2019-03-20T03:02:43.151Z,94951.69
2019-03-20T03:05:12.001Z,94948.55
2019-03-20T03:07:40.741Z,94952.45
2019-03-20T03:10:11.889Z,94953.08
2019-03-20T03:12:40.546Z,94953.67
2019-03-20T03:15:10.841Z,94956.23
2019-03-20T03:17:39.511Z,94937.47
2019-03-20T03:20:10.582Z,94958.97
2019-03-20T03:22:39.249Z,94966.52
2019-03-20T03:27:37.012Z,94963.50
2019-03-20T03:30:14.614Z,94971.33
2019-03-20T03:32:43.297Z,94963.98
2019-03-20T03:35:16.906Z,94969.23
2019-03-20T03:37:42.562Z,94967.92
2019-03-20T03:40:18.619Z,94971.70
2019-03-20T03:42:47.906Z,94974.41
2019-03-20T03:45:17.311Z,94982.84
2019-03-20T03:47:46.735Z,94968.91
2019-03-20T03:50:15.598Z,94984.81
2019-03-20T03:52:44.331Z,94991.59
2019-03-20T03:55:14.142Z,94991.00
2019-03-20T03:57:43.346Z,94995.83
2019-03-20T04:00:16.573Z,94998.25
2019-03-20T04:02:45.326Z,95004.55
2019-03-20T04:05:14.471Z,95001.56
2019-03-20T04:07:43.152Z,95006.22
2019-03-20T04:10:16.922Z,95004.27
2019-03-20T04:12:45.944Z,95004.72
2019-03-20T04:15:16.472Z,95009.24
2019-03-20T04:17:45.167Z,95005.77
2019-03-20T04:20:18.411Z,95006.09
2019-03-20T04:22:47.077Z,95011.95
2019-03-20T04:25:16.054Z,95016.30
2019-03-20T04:27:44.690Z,95018.70
2019-03-20T04:30:15.343Z,95020.66
2019-03-20T04:32:44.000Z,95026.38
2019-03-20T04:35:13.377Z,95021.57
2019-03-20T04:37:42.365Z,95006.68
2019-03-20T04:40:12.645Z,95027.12
2019-03-20T04:42:41.327Z,95040.21
2019-03-20T04:45:12.890Z,95039.45
2019-03-20T04:47:41.777Z,95043.95
2019-03-20T04:50:11.980Z,95047.09
2019-03-20T04:52:40.768Z,95052.05
2019-03-20T04:55:10.331Z,95046.94
2019-03-20T04:57:39.015Z,95033.70
2019-03-20T05:00:22.753Z,95052.97
2019-03-20T05:02:51.521Z,95047.57
2019-03-20T05:05:20.335Z,95050.14
2019-03-20T05:07:49.021Z,95063.23
2019-03-20T05:10:18.908Z,95067.44
2019-03-20T05:12:47.620Z,95072.24
2019-03-20T05:15:16.287Z,95072.22
2019-03-20T05:17:44.977Z,95080.03
2019-03-20T05:20:19.449Z,95087.06
2019-03-20T05:22:48.162Z,95091.66
2019-03-20T05:25:16.858Z,95094.05
2019-03-20T05:27:45.535Z,95104.44
2019-03-20T05:30:15.207Z,95099.44
2019-03-20T05:32:44.006Z,95105.55
2019-03-20T05:35:12.933Z,95110.94
2019-03-20T05:37:41.963Z,95118.91
2019-03-20T05:40:15.622Z,95120.15
2019-03-20T05:42:44.292Z,95115.11
2019-03-20T05:45:20.072Z,95126.34
2019-03-20T05:47:48.848Z,95127.92
2019-03-20T05:50:18.266Z,95130.83
2019-03-20T05:52:46.942Z,95137.16
2019-03-20T05:55:15.925Z,95136.68
2019-03-20T05:57:44.610Z,95136.06
2019-03-20T06:00:23.260Z,95138.84
2019-03-20T06:02:51.971Z,95151.79
2019-03-20T06:05:20.700Z,95150.27
2019-03-20T06:07:49.383Z,95149.15
2019-03-20T06:10:19.112Z,95145.61
2019-03-20T06:12:47.776Z,95142.77
2019-03-20T06:15:16.800Z,95154.87
2019-03-20T06:17:46.857Z,95152.53
2019-03-20T06:20:16.040Z,95152.48
2019-03-20T06:22:44.726Z,95153.11
2019-03-20T06:25:15.008Z,95126.58
2019-03-20T06:27:43.628Z,95151.05
2019-03-20T06:30:16.933Z,95151.86
2019-03-20T06:32:46.057Z,95160.69
2019-03-20T06:35:15.359Z,95163.06
2019-03-20T06:37:43.994Z,95163.20
2019-03-20T06:40:14.922Z,95166.41
2019-03-20T06:42:44.076Z,95168.16
2019-03-20T06:45:14.778Z,95168.08
2019-03-20T06:47:43.902Z,95173.83
2019-03-20T06:50:24.797Z,95173.82
2019-03-20T06:52:53.580Z,95169.43
2019-03-20T06:55:22.486Z,95172.46
2019-03-20T06:57:51.326Z,95174.75
2019-03-20T07:00:40.859Z,95181.02
2019-03-20T07:06:22.922Z,95176.59
2019-03-20T07:08:54.589Z,95181.33
2019-03-20T07:11:22.300Z,95181.07
2019-03-20T07:13:51.255Z,95193.04
2019-03-20T07:16:20.281Z,95182.86
2019-03-20T07:18:48.996Z,95189.87
2019-03-20T07:21:18.863Z,95197.41
2019-03-20T07:23:49.366Z,95188.20
2019-03-20T07:26:18.243Z,95189.44
2019-03-20T07:28:47.258Z,95192.17
2019-03-20T07:31:16.769Z,95183.98
2019-03-20T07:33:45.784Z,95178.98
2019-03-20T07:36:14.495Z,95181.85
2019-03-20T07:38:43.689Z,95187.75
2019-03-20T07:41:12.780Z,95188.58
2019-03-20T07:43:42.039Z,95183.00
2019-03-20T07:46:11.268Z,95183.00
2019-03-20T07:48:40.794Z,95168.89
2019-03-20T07:51:09.576Z,95181.78
2019-03-20T07:53:40.296Z,95184.07
2019-03-20T07:56:09.983Z,95181.23
2019-03-20T07:58:38.984Z,95181.77
2019-03-20T08:01:09.707Z,95183.83
2019-03-20T08:03:38.832Z,95183.80
2019-03-20T08:06:08.494Z,95187.97
2019-03-20T08:08:37.632Z,95187.56
2019-03-20T08:11:06.456Z,95182.59
2019-03-20T08:13:35.158Z,95187.84
2019-03-20T08:16:04.603Z,95182.50
2019-03-20T08:18:33.326Z,95181.02
2019-03-20T08:21:02.295Z,95182.43
2019-03-20T08:23:31.280Z,95186.45
2019-03-20T08:26:00.290Z,95183.58
2019-03-20T08:28:29.167Z,95184.04
2019-03-20T08:30:57.945Z,95179.67
2019-03-20T08:33:26.764Z,95185.49
2019-03-20T08:35:55.724Z,95184.91
2019-03-20T08:38:24.700Z,95177.54
2019-03-20T08:40:53.681Z,95180.34
2019-03-20T08:43:22.780Z,95182.48
2019-03-20T08:45:51.944Z,95172.76
2019-03-20T08:48:21.882Z,95179.97
2019-03-20T08:50:51.089Z,95175.05
2019-03-20T08:53:19.932Z,95175.73
2019-03-20T08:55:48.700Z,95166.87
2019-03-20T08:58:17.368Z,95165.91
2019-03-20T09:00:46.359Z,95168.64
2019-03-20T09:03:15.241Z,95160.98
2019-03-20T09:05:44.024Z,95160.85
2019-03-20T09:08:12.753Z,95167.73
2019-03-20T09:10:41.489Z,95169.69
2019-03-20T09:13:10.305Z,95164.49
2019-03-20T09:15:39.287Z,95166.16
2019-03-20T09:18:08.285Z,95169.72
2019-03-20T09:20:37.097Z,95168.37
2019-03-20T09:23:05.828Z,95167.56
2019-03-20T09:25:34.591Z,95160.69
2019-03-20T09:28:03.410Z,95146.47
2019-03-20T09:30:32.185Z,95162.28
2019-03-20T09:33:01.636Z,95165.33
2019-03-20T09:35:31.186Z,95170.20
2019-03-20T09:38:00.018Z,95157.89
2019-03-20T09:40:29.778Z,95161.16
2019-03-20T09:42:58.833Z,95158.42
2019-03-20T09:45:27.546Z,95158.66
2019-03-20T09:47:56.242Z,95159.94
2019-03-20T09:50:26.966Z,95153.79
2019-03-20T09:52:55.873Z,95154.37
2019-03-20T09:55:25.087Z,95154.31
2019-03-20T09:57:54.426Z,95153.35
2019-03-20T10:00:29.863Z,95146.09
2019-03-20T10:02:58.547Z,95137.41
2019-03-20T10:05:27.402Z,95143.52
2019-03-20T10:07:56.263Z,95138.13
2019-03-20T10:10:26.338Z,95148.67
2019-03-20T10:12:55.102Z,95145.95
2019-03-20T10:15:32.293Z,95138.98
2019-03-20T10:18:01.008Z,95142.52
2019-03-20T10:20:34.282Z,95141.67
2019-03-20T10:23:03.360Z,95136.54
2019-03-20T10:25:32.100Z,95133.30
2019-03-20T10:28:00.963Z,95133.66
2019-03-20T10:30:30.546Z,95136.62
2019-03-20T10:32:59.310Z,95140.03
2019-03-20T10:35:29.942Z,95133.88
2019-03-20T10:37:59.100Z,95135.80
2019-03-20T10:40:28.754Z,95126.08
2019-03-20T10:42:57.531Z,95080.47
2019-03-20T10:45:26.736Z,95125.23
2019-03-20T10:47:55.746Z,95124.75
2019-03-20T10:50:30.021Z,95115.89
2019-03-20T10:52:58.794Z,95109.81
2019-03-20T10:55:27.499Z,95114.48
2019-03-20T10:57:59.164Z,95116.33
2019-03-20T11:00:28.987Z,95112.48
2019-03-20T11:02:57.873Z,95108.28
2019-03-20T11:05:26.635Z,95103.38
2019-03-20T11:07:55.525Z,95098.35
2019-03-20T11:10:26.640Z,95098.83
2019-03-20T11:12:55.620Z,95100.48
2019-03-20T11:15:25.437Z,95096.73
2019-03-20T11:17:55.291Z,95097.11
2019-03-20T11:20:25.163Z,95095.30
2019-03-20T11:22:56.194Z,95098.83
2019-03-20T11:25:29.024Z,95095.10
2019-03-20T11:27:57.975Z,95093.11
2019-03-20T11:30:29.847Z,95095.44
2019-03-20T11:32:59.922Z,95057.19
2019-03-20T11:35:29.507Z,95085.70
2019-03-20T11:37:58.191Z,95087.52
2019-03-20T11:40:38.039Z,95074.36
2019-03-20T11:43:07.072Z,95079.48
2019-03-20T11:45:35.886Z,95064.23
2019-03-20T11:48:05.247Z,95094.14
2019-03-20T11:50:41.225Z,95078.33
2019-03-20T11:53:19.509Z,95076.76
2019-03-20T11:55:48.643Z,95073.16
2019-03-20T11:58:22.967Z,95072.91
2019-03-20T12:00:52.123Z,95068.64
2019-03-20T12:03:20.914Z,95070.28
2019-03-20T12:05:49.761Z,95068.20
2019-03-20T12:08:18.858Z,95068.20
2019-03-20T12:10:47.571Z,95068.17
2019-03-20T12:13:16.246Z,95069.11
2019-03-20T12:15:45.069Z,95073.61
2019-03-20T12:18:13.986Z,95061.59
2019-03-20T12:20:42.744Z,95063.38
2019-03-20T12:23:11.606Z,95054.08
2019-03-20T12:25:41.089Z,95058.41
2019-03-20T12:28:09.959Z,95061.82
2019-03-20T12:30:39.742Z,95061.27
2019-03-20T12:33:08.732Z,95064.73
2019-03-20T12:35:42.405Z,95028.92
2019-03-20T12:38:14.652Z,95022.34
2019-03-20T12:40:41.759Z,95052.98
2019-03-20T12:43:10.501Z,95050.05
2019-03-20T12:45:40.308Z,95051.47
2019-03-20T12:48:11.176Z,95036.26
2019-03-20T12:50:39.986Z,95049.39
2019-03-20T12:53:10.945Z,95046.78
2019-03-20T12:55:39.618Z,95047.94
2019-03-20T12:58:08.294Z,95055.17
2019-03-20T13:00:37.195Z,95046.13
2019-03-20T13:03:05.899Z,95048.64
2019-03-20T13:05:34.812Z,95056.13
2019-03-20T13:08:06.056Z,95046.51
2019-03-20T13:10:33.913Z,95051.05
2019-03-20T13:13:02.670Z,95051.84
2019-03-20T13:15:33.390Z,95044.13
2019-03-20T13:18:01.976Z,95043.66
2019-03-20T13:20:32.139Z,95054.41
2019-03-20T13:23:15.955Z,95056.33
2019-03-20T13:25:44.771Z,95050.66
2019-03-20T13:28:16.545Z,95052.84
2019-03-20T13:30:51.147Z,95058.81
2019-03-20T13:33:25.702Z,95053.97
2019-03-20T13:35:50.392Z,94972.61
2019-03-20T13:38:19.074Z,95059.01
2019-03-20T13:40:48.143Z,95059.09
2019-03-20T13:43:16.813Z,95063.34
2019-03-20T13:45:49.816Z,95054.95
2019-03-20T13:48:18.664Z,95067.08
2019-03-20T13:50:48.934Z,95061.77
2019-03-20T13:53:17.849Z,95061.64
2019-03-20T13:55:46.583Z,95062.50
2019-03-20T13:58:15.441Z,95061.37
2019-03-20T14:00:44.080Z,95064.64
2019-03-20T14:03:12.890Z,95062.69
2019-03-20T14:05:41.725Z,95063.41
2019-03-20T14:08:10.685Z,95060.82
2019-03-20T14:10:49.653Z,95067.56
2019-03-20T14:13:10.088Z,95060.74
2019-03-20T14:15:42.051Z,95059.70
2019-03-20T14:18:09.415Z,95057.62
2019-03-20T14:20:38.486Z,95058.52
2019-03-20T14:23:07.606Z,95064.55
2019-03-20T14:25:36.756Z,95068.58
2019-03-20T14:28:05.477Z,95066.41
2019-03-20T14:30:34.775Z,95063.03
2019-03-20T14:33:03.540Z,95058.50
2019-03-20T14:35:32.260Z,95065.92
2019-03-20T14:38:01.057Z,95059.03
2019-03-20T14:40:37.140Z,95066.81
2019-03-20T14:43:06.187Z,95072.27
2019-03-20T14:45:35.202Z,95084.75
2019-03-20T14:48:03.879Z,95085.25
2019-03-20T14:50:36.280Z,95081.12
2019-03-20T14:53:04.605Z,95085.98
2019-03-20T14:55:33.284Z,95094.39
2019-03-20T14:58:02.262Z,95089.88
2019-03-20T15:00:31.940Z,95090.43
2019-03-20T15:03:00.625Z,95093.77
2019-03-20T15:05:29.340Z,95093.95
2019-03-20T15:07:58.275Z,95106.23
2019-03-20T15:10:27.763Z,95103.06
2019-03-20T15:12:57.351Z,95105.17
2019-03-20T15:15:57.363Z,95101.23
2019-03-20T15:18:26.087Z,95107.30
2019-03-20T15:20:57.309Z,95112.70
2019-03-20T15:23:26.278Z,95109.92
2019-03-20T15:25:55.033Z,95116.56
2019-03-20T15:28:23.752Z,95117.11
2019-03-20T15:30:52.847Z,95129.95
2019-03-20T15:33:21.519Z,95126.42
2019-03-20T15:35:50.261Z,95130.42
2019-03-20T15:38:18.939Z,95130.84
2019-03-20T15:40:55.947Z,95140.63
2019-03-20T15:43:18.093Z,95149.12
2019-03-20T15:45:46.899Z,95153.13
2019-03-20T15:48:15.597Z,95159.53
2019-03-20T15:50:44.328Z,95150.80
2019-03-20T15:53:13.056Z,95164.13
2019-03-20T15:55:42.327Z,95167.90
2019-03-20T15:58:11.039Z,95177.72
2019-03-20T16:00:40.133Z,95182.33
2019-03-20T16:03:21.407Z,95188.06
2019-03-20T16:05:50.076Z,95186.44
2019-03-20T16:08:18.828Z,95192.30
2019-03-20T16:10:47.667Z,95196.88
2019-03-20T16:13:16.604Z,95198.72
2019-03-20T16:15:45.274Z,95211.24
2019-03-20T16:18:13.950Z,95208.85
2019-03-20T16:20:42.626Z,95219.23
2019-03-20T16:23:11.311Z,95220.95
2019-03-20T16:25:40.054Z,95225.64
2019-03-20T16:28:08.764Z,95232.42
2019-03-20T16:30:37.451Z,95236.45
2019-03-20T16:33:06.164Z,95245.98
2019-03-20T16:35:35.139Z,95248.58
2019-03-20T16:38:04.277Z,95255.61
2019-03-20T16:40:34.462Z,95256.27
2019-03-20T16:43:03.136Z,95253.02
2019-03-20T16:45:33.943Z,95260.95
2019-03-20T16:48:02.649Z,95265.09
2019-03-20T16:50:32.805Z,95269.23
2019-03-20T16:53:01.489Z,95276.05
2019-03-20T16:55:30.166Z,95278.81
2019-03-20T16:57:58.908Z,95283.03
2019-03-20T17:00:34.074Z,95288.41
2019-03-20T17:03:02.811Z,95291.50
2019-03-20T17:05:31.964Z,95295.88
2019-03-20T17:08:00.867Z,95295.14
2019-03-20T17:10:40.396Z,95302.16
2019-03-20T17:13:09.093Z,95315.19
2019-03-20T17:15:42.232Z,95320.11
2019-03-20T17:18:11.166Z,95321.89
2019-03-20T17:20:39.984Z,95329.51
2019-03-20T17:23:08.608Z,95335.64
2019-03-20T17:25:37.298Z,95340.30
2019-03-20T17:28:07.293Z,95351.11
2019-03-20T17:30:38.158Z,95345.25
2019-03-20T17:33:07.438Z,95360.30
2019-03-20T17:35:36.116Z,95363.14
2019-03-20T17:38:05.529Z,95365.03
2019-03-20T17:40:34.204Z,95365.95
2019-03-20T17:43:03.007Z,95377.89
2019-03-20T17:45:33.283Z,95382.32
2019-03-20T17:48:01.963Z,95382.27
2019-03-20T17:50:31.833Z,95383.38
2019-03-20T17:53:01.042Z,95388.01
2019-03-20T17:55:29.920Z,95385.85
2019-03-20T17:57:58.613Z,95383.22
2019-03-20T18:00:38.678Z,95394.20
2019-03-20T18:03:07.951Z,95394.73
2019-03-20T18:05:37.140Z,95403.28
2019-03-20T18:08:07.002Z,95399.20
2019-03-20T18:10:35.692Z,95405.95
2019-03-20T18:13:06.245Z,95409.30
2019-03-20T18:15:35.303Z,95409.95
2019-03-20T18:18:04.318Z,95421.56
2019-03-20T18:20:33.009Z,95419.28
2019-03-20T18:23:01.748Z,95426.43
2019-03-20T18:25:30.744Z,95440.91
2019-03-20T18:27:59.570Z,95428.47
2019-03-20T18:30:30.254Z,95441.83
2019-03-20T18:32:59.134Z,95432.61
2019-03-20T18:35:27.820Z,95440.45
2019-03-20T18:37:56.479Z,95445.98
2019-03-20T18:40:26.757Z,95446.80
2019-03-20T18:42:55.418Z,95456.34
2019-03-20T18:45:25.512Z,95464.84
2019-03-20T18:47:54.339Z,95468.39
2019-03-20T18:50:24.037Z,95465.55
2019-03-20T18:52:53.124Z,95466.19
2019-03-20T18:55:22.233Z,95463.14
2019-03-20T18:57:51.185Z,95468.89
2019-03-20T19:00:27.777Z,95470.23
2019-03-20T19:03:01.962Z,95474.19
2019-03-20T19:05:42.463Z,95471.78
2019-03-20T19:08:11.224Z,95470.25
2019-03-20T19:10:39.996Z,95466.59
2019-03-20T19:13:08.683Z,95473.99
2019-03-20T19:15:39.078Z,95479.23
2019-03-20T19:18:07.891Z,95481.62
2019-03-20T19:20:36.552Z,95486.42
2019-03-20T19:23:05.624Z,95481.98
2019-03-20T19:25:37.498Z,95482.87
2019-03-20T19:28:06.194Z,95488.08
2019-03-20T19:30:34.921Z,95488.23
2019-03-20T19:33:03.569Z,95488.05
2019-03-20T19:35:32.256Z,95489.36
2019-03-20T19:38:01.010Z,95470.77
2019-03-20T19:40:39.739Z,95495.06
2019-03-20T19:43:11.440Z,95496.69
2019-03-20T19:45:44.557Z,95500.27
2019-03-20T19:48:32.562Z,95500.92
2019-03-20T19:51:11.986Z,95500.52
2019-03-20T19:53:42.727Z,95503.73
2019-03-20T19:56:22.913Z,95498.16
2019-03-20T19:58:51.599Z,95497.44
2019-03-20T20:01:21.843Z,95501.86
2019-03-20T20:03:50.636Z,95501.67
2019-03-20T20:06:19.273Z,95504.00
2019-03-20T20:08:47.952Z,95503.08
2019-03-20T20:11:16.628Z,95504.77
2019-03-20T20:13:45.329Z,95509.16
2019-03-20T20:16:14.021Z,95511.97
2019-03-20T20:18:42.839Z,95514.44
2019-03-20T20:21:11.581Z,95517.42
2019-03-20T20:23:40.243Z,95516.25
2019-03-20T20:26:09.000Z,95520.64
2019-03-20T20:28:37.681Z,95516.21
2019-03-20T20:31:06.804Z,95527.58
2019-03-20T20:33:37.935Z,95524.89
2019-03-20T20:36:05.957Z,95529.90
2019-03-20T20:38:34.621Z,95525.14
2019-03-20T20:41:03.314Z,95524.25
2019-03-20T20:43:31.991Z,95528.53
2019-03-20T20:46:00.694Z,95522.92
2019-03-20T20:48:29.443Z,95525.43
2019-03-20T20:50:58.128Z,95527.16
2019-03-20T20:53:26.797Z,95524.21
2019-03-20T20:55:55.476Z,95535.49
2019-03-20T20:58:24.213Z,95528.48
2019-03-20T21:00:52.897Z,95528.92
2019-03-20T21:03:21.578Z,95536.95
2019-03-20T21:05:50.273Z,95535.88
2019-03-20T21:08:18.947Z,95532.71
2019-03-20T21:10:47.642Z,95529.53
2019-03-20T21:13:16.317Z,95538.84
2019-03-20T21:15:46.613Z,95538.94
2019-03-20T21:18:29.964Z,95539.02
2019-03-20T21:20:59.017Z,95541.28
2019-03-20T21:23:59.412Z,95540.20
2019-03-20T21:26:49.094Z,95537.39
2019-03-20T21:29:43.146Z,95540.89
2019-03-20T21:32:25.966Z,95543.59
2019-03-20T21:35:22.909Z,95545.79
2019-03-20T21:38:07.161Z,95543.69
2019-03-20T21:40:38.757Z,95547.00
2019-03-20T21:43:33.393Z,95545.31
2019-03-20T21:46:22.928Z,95554.80
2019-03-20T21:48:51.621Z,95547.33
2019-03-20T21:51:20.283Z,95551.03
2019-03-20T21:54:12.725Z,95542.34
2019-03-20T21:56:50.125Z,95552.92
2019-03-20T21:59:24.346Z,95554.08
2019-03-20T22:02:21.599Z,95553.66
2019-03-20T22:04:50.272Z,95559.73
2019-03-20T22:07:19.084Z,95554.13
2019-03-20T22:09:53.538Z,95556.41
2019-03-20T22:12:27.719Z,95555.20
2019-03-20T22:15:07.917Z,95549.59
2019-03-20T22:17:55.989Z,95552.20
2019-03-20T22:20:44.315Z,95546.16
2019-03-20T22:23:21.692Z,95552.72
2019-03-20T22:25:59.494Z,95552.57
2019-03-20T22:28:55.055Z,95558.34
2019-03-20T22:31:23.763Z,95557.18
2019-03-20T22:34:28.773Z,95559.63
2019-03-20T22:36:57.467Z,95554.86
2019-03-20T22:39:48.709Z,95555.91
2019-03-20T22:42:20.299Z,95556.08
2019-03-20T22:45:06.981Z,95556.70
2019-03-20T22:47:41.595Z,95567.29
2019-03-20T22:50:31.475Z,95561.83
2019-03-20T22:53:11.881Z,95570.41
2019-03-20T22:55:55.542Z,95566.99
2019-03-20T22:58:27.555Z,95574.83
2019-03-20T23:01:02.299Z,95569.84
2019-03-20T23:03:33.945Z,95575.56
2019-03-20T23:06:02.812Z,95571.31
2019-03-20T23:08:31.731Z,95569.16
2019-03-20T23:11:00.522Z,95577.73
2019-03-20T23:13:29.208Z,95576.94
2019-03-20T23:15:57.894Z,95577.26
2019-03-20T23:18:26.565Z,95580.08
2019-03-20T23:20:55.248Z,95583.25
2019-03-20T23:23:23.934Z,95582.55
2019-03-20T23:25:52.635Z,95574.13
2019-03-20T23:28:21.311Z,95573.51
2019-03-20T23:30:50.207Z,95578.31
2019-03-20T23:33:18.932Z,95577.57
2019-03-20T23:35:47.618Z,95575.34
2019-03-20T23:38:16.294Z,95577.90
2019-03-20T23:40:45.157Z,95579.06
2019-03-20T23:43:14.552Z,95580.41
2019-03-20T23:45:43.287Z,95581.89
2019-03-20T23:48:21.145Z,95581.42
2019-03-20T23:50:55.313Z,95586.88
2019-03-20T23:53:24.174Z,95588.33
2019-03-20T23:55:52.850Z,95588.71
2019-03-20T23:58:21.522Z,95585.75
